Sosnovy Bor, Russia
Current Conditions -  °F | °C
As of 3:20 PM on Saturday 20 Dec 2014 (Local Time) from EFLP Reporting Station
Broken Clouds Broken Clouds  
Wind Chill: 24°   Ceiling: 2600
Heat Index: 32°   Visibility: 6mi
Dew Point: 28°   Wind: 10mph
Humidity: 87%   Direction: 220°SW
Pressure: 29"   Gusts: NA
Location:  60.53°N, 28.68°E
Report Text: EFLP 201220Z AUTO 22009KT 9999 BKN026 00/M02 Q0982
Loading
Personal Weather Stations






























Interactive Weather Map New forecast layout! Learn more

10-Day Weather Forecast

Advertisements
Track Severe Weather on mobile